This is the latest recevied weather packets stored in our database for station/object NM5PB. If no packets are shown the sender has not sent any weather packets the latest 10 day(s).
| Time | Temp. | Humidity | Pressure | Rain* | Wind** | Luminosity | Snow |
|---|---|---|---|---|---|---|---|
| 1776992334 | 20° C | 91% | - | 0 mm | - | - | - |
| 1776991734 | 19.44° C | 91% | - | 0 mm | - | - | - |
| 1776991134 | 20° C | 90% | - | 0 mm | - | - | - |
| 1776990534 | 21.11° C | 86% | - | 0 mm | - | - | - |
| 1776989934 | 22.78° C | 79% | - | 0 mm | - | - | - |
| 1776989334 | 23.89° C | 72% | - | 0 mm | - | - | - |
| 1776988734 | 24.44° C | 66% | - | 0 mm | - | - | - |
| 1776988134 | 25° C | 67% | - | 0 mm | - | - | - |
| 1776987534 | 25° C | 65% | - | 0 mm | - | - | - |
| 1776986934 | 25° C | 65% | - | 0 mm | - | - | - |
| 1776986334 | 25° C | 65% | - | 0 mm | - | - | - |
| 1776985734 | 25° C | 65% | - | 0 mm | - | - | - |
| 1776985134 | 25° C | 65% | - | 0 mm | - | - | - |
| 1776984534 | 25° C | 64% | - | 0 mm | - | - | - |
| 1776983934 | 25° C | 64% | - | 0 mm | - | - | - |
| 1776983334 | 25° C | 64% | - | 0 mm | - | - | - |
| 1776982734 | 25° C | 64% | - | 0 mm | - | - | - |
| 1776982134 | 25° C | 64% | - | 0 mm | - | - | - |
| 1776981534 | 25° C | 63% | - | 0 mm | - | - | - |
| 1776980934 | 25° C | 64% | - | 0 mm | - | - | - |
| 1776980334 | 25° C | 64% | - | 0 mm | - | - | - |
| 1776979734 | 25° C | 63% | - | 0 mm | - | - | - |
| 1776979134 | 25° C | 62% | - | 0 mm | - | - | - |
| 1776978534 | 25.56° C | 62% | - | 0 mm | - | - | - |
| 1776977934 | 25.56° C | 62% | - | 0 mm | - | - | - |
* Rain latest hour (hover to see other rain measurements)
** Current wind speed in m/s (hover to see current wind gust speed)